createdAt,value
2022-10-05T00:01:34.716Z,6.04
2022-10-05T00:04:22.257Z,5.71
2022-10-05T00:07:18.973Z,5.84
2022-10-05T00:09:54.922Z,5.81
2022-10-05T00:12:24.743Z,5.48
2022-10-05T00:14:58.102Z,5.77
2022-10-05T00:17:29.386Z,5.79
2022-10-05T00:19:58.007Z,5.70
2022-10-05T00:22:34.052Z,5.40
2022-10-05T00:25:11.280Z,5.68
2022-10-05T00:27:40.370Z,5.40
2022-10-05T00:30:21.185Z,5.50
2022-10-05T00:32:50.821Z,5.74
2022-10-05T00:35:20.333Z,5.55
2022-10-05T00:37:54.382Z,5.56
2022-10-05T00:41:14.595Z,5.89
2022-10-05T00:44:16.613Z,5.79
2022-10-05T00:47:13.026Z,5.88
2022-10-05T00:50:14.279Z,5.96
2022-10-05T00:53:01.580Z,5.92
2022-10-05T00:55:38.243Z,5.84
2022-10-05T00:58:30.743Z,5.80
2022-10-05T01:00:58.728Z,5.74
2022-10-05T01:04:08.944Z,5.66
2022-10-05T01:07:12.823Z,5.60
2022-10-05T01:10:01.270Z,5.54
2022-10-05T01:12:51.149Z,5.47
2022-10-05T01:16:11.274Z,5.64
2022-10-05T01:19:14.907Z,5.48
2022-10-05T01:22:14.176Z,5.64
2022-10-05T01:24:54.018Z,5.71
2022-10-05T01:27:41.858Z,5.75
2022-10-05T01:30:15.933Z,5.81
2022-10-05T01:32:48.792Z,5.93
2022-10-05T01:35:40.962Z,5.99
2022-10-05T01:38:40.194Z,6.03
2022-10-05T01:41:24.505Z,6.10
2022-10-05T01:44:13.068Z,6.00
2022-10-05T01:47:28.830Z,6.10
2022-10-05T01:50:41.312Z,6.17
2022-10-05T01:53:45.527Z,6.19
2022-10-05T01:56:38.870Z,6.20
2022-10-05T01:59:31.755Z,6.21
2022-10-05T02:02:09.477Z,6.24
2022-10-05T02:05:01.798Z,6.28
2022-10-05T02:07:49.638Z,6.23
2022-10-05T02:10:19.421Z,6.19
2022-10-05T02:12:50.175Z,6.15
2022-10-05T02:15:26.373Z,6.14
2022-10-05T02:18:08.174Z,5.86
2022-10-05T02:20:37.884Z,5.87
2022-10-05T02:23:19.724Z,6.04
2022-10-05T02:25:49.730Z,6.21
2022-10-05T02:28:37.813Z,6.26
2022-10-05T02:31:24.429Z,6.29
2022-10-05T02:33:54.769Z,6.03
2022-10-05T02:36:37.030Z,6.34
2022-10-05T02:40:06.408Z,6.38
2022-10-05T02:42:56.223Z,6.37
2022-10-05T02:45:54.119Z,6.38
2022-10-05T02:48:50.154Z,6.35
2022-10-05T02:51:42.698Z,6.30
2022-10-05T02:54:41.551Z,6.08
2022-10-05T02:57:31.433Z,6.22
2022-10-05T03:00:20.071Z,6.23
2022-10-05T03:02:55.549Z,6.25
2022-10-05T03:05:38.305Z,5.97
2022-10-05T03:08:31.333Z,6.00
2022-10-05T03:11:36.956Z,6.25
2022-10-05T03:14:31.544Z,6.23
2022-10-05T03:17:19.881Z,6.26
2022-10-05T03:20:25.977Z,6.27
2022-10-05T03:23:02.222Z,6.29
2022-10-05T03:26:18.084Z,6.31
2022-10-05T03:29:26.823Z,6.36
2022-10-05T03:32:20.092Z,6.29
2022-10-05T03:35:12.135Z,6.27
2022-10-05T03:38:07.548Z,6.02
2022-10-05T03:41:09.412Z,6.23
2022-10-05T03:44:27.534Z,6.28
2022-10-05T03:47:26.281Z,6.26
2022-10-05T03:50:51.321Z,6.46
2022-10-05T03:53:25.611Z,6.42
2022-10-05T03:56:05.177Z,6.22
2022-10-05T03:58:46.473Z,6.39
2022-10-05T04:01:29.817Z,6.43
2022-10-05T04:04:01.988Z,6.32
2022-10-05T04:06:45.619Z,6.52
2022-10-05T04:09:43.261Z,6.16
2022-10-05T04:12:32.392Z,6.41
2022-10-05T04:15:19.486Z,6.43
2022-10-05T04:17:57.518Z,6.38
2022-10-05T04:20:46.854Z,6.44
2022-10-05T04:23:40.577Z,6.44
2022-10-05T04:26:31.243Z,6.41
2022-10-05T04:29:24.447Z,6.46
2022-10-05T04:32:30.221Z,6.52
2022-10-05T04:35:38.271Z,6.46
2022-10-05T04:38:39.128Z,6.46
2022-10-05T04:41:25.458Z,6.57
2022-10-05T04:44:09.232Z,6.60
2022-10-05T04:47:08.043Z,6.60
2022-10-05T04:50:16.421Z,6.63
2022-10-05T04:53:31.537Z,6.43
2022-10-05T04:56:38.975Z,6.60
2022-10-05T04:59:39.095Z,6.66
2022-10-05T05:02:40.406Z,6.57
2022-10-05T05:06:05.091Z,6.83
2022-10-05T05:08:42.268Z,6.84
2022-10-05T05:11:27.177Z,6.84
2022-10-05T05:14:16.115Z,6.87
2022-10-05T05:16:54.973Z,6.87
2022-10-05T05:19:58.764Z,6.90
2022-10-05T05:22:39.746Z,7.00
2022-10-05T05:25:40.292Z,6.95
2022-10-05T05:28:42.582Z,7.16
2022-10-05T05:31:34.658Z,7.22
2022-10-05T05:34:17.467Z,7.26
2022-10-05T05:37:04.694Z,7.46
2022-10-05T05:40:12.976Z,7.60
2022-10-05T05:43:13.021Z,7.70
2022-10-05T05:46:00.611Z,7.60
2022-10-05T05:48:40.062Z,7.95
2022-10-05T05:51:27.499Z,8.12
2022-10-05T05:54:16.510Z,8.32
2022-10-05T05:57:11.490Z,8.49
2022-10-05T06:00:38.948Z,8.62
2022-10-05T06:03:43.369Z,8.89
2022-10-05T06:06:17.537Z,8.99
2022-10-05T06:08:58.458Z,9.02
2022-10-05T06:11:54.315Z,9.09
2022-10-05T06:14:46.021Z,9.21
2022-10-05T06:17:38.129Z,9.38
2022-10-05T06:20:33.526Z,9.42
2022-10-05T06:23:12.610Z,9.19
2022-10-05T06:26:12.147Z,9.34
2022-10-05T06:28:43.242Z,9.20
2022-10-05T06:31:26.727Z,9.43
2022-10-05T06:34:19.015Z,9.49
2022-10-05T06:36:59.631Z,9.44
2022-10-05T06:40:16.332Z,9.50
2022-10-05T06:43:17.030Z,9.62
2022-10-05T06:46:20.000Z,9.86
2022-10-05T06:49:07.518Z,9.86
2022-10-05T06:52:20.039Z,9.97
2022-10-05T06:55:15.874Z,10.02
2022-10-05T06:58:04.313Z,10.12
2022-10-05T07:01:00.915Z,9.97
2022-10-05T07:03:55.947Z,10.19
2022-10-05T07:06:32.245Z,10.24
2022-10-05T07:09:33.064Z,10.27
2022-10-05T07:12:20.065Z,10.55
2022-10-05T07:15:22.401Z,10.63
2022-10-05T07:18:52.711Z,10.91
2022-10-05T07:22:09.323Z,11.12
2022-10-05T07:24:52.753Z,11.30
2022-10-05T07:27:32.334Z,11.20
2022-10-05T07:30:05.862Z,11.61
2022-10-05T07:33:05.485Z,11.85
2022-10-05T07:36:19.305Z,12.06
2022-10-05T07:39:05.655Z,12.17
2022-10-05T07:41:47.733Z,12.30
2022-10-05T07:44:29.637Z,12.37
2022-10-05T07:47:32.272Z,12.28
2022-10-05T07:50:25.554Z,11.96
2022-10-05T07:53:37.726Z,12.16
2022-10-05T07:56:54.219Z,12.05
2022-10-05T08:00:03.943Z,12.19
2022-10-05T08:02:59.516Z,12.19
2022-10-05T08:05:40.873Z,12.11
2022-10-05T08:08:23.508Z,12.14
2022-10-05T08:11:15.792Z,12.19
2022-10-05T08:14:02.275Z,12.26
2022-10-05T08:16:38.089Z,12.62
2022-10-05T08:19:34.937Z,12.80
2022-10-05T08:22:14.151Z,13.21
2022-10-05T08:24:56.033Z,13.37
2022-10-05T08:27:48.312Z,13.53
2022-10-05T08:30:17.591Z,13.75
2022-10-05T08:33:06.940Z,14.10
2022-10-05T08:35:47.309Z,13.66
2022-10-05T08:38:40.747Z,13.01
2022-10-05T08:41:41.946Z,13.60
2022-10-05T08:44:50.421Z,13.49
2022-10-05T08:47:37.440Z,13.29
2022-10-05T08:51:03.832Z,13.26
2022-10-05T08:53:55.518Z,13.18
2022-10-05T08:56:35.771Z,13.23
2022-10-05T08:59:18.413Z,12.93
2022-10-05T09:02:42.929Z,13.21
2022-10-05T09:05:51.171Z,13.31
2022-10-05T09:08:40.191Z,13.34
2022-10-05T09:11:40.857Z,13.21
2022-10-05T09:14:52.598Z,13.45
2022-10-05T09:17:29.236Z,13.52
2022-10-05T09:20:30.553Z,13.70
2022-10-05T09:23:15.941Z,13.94
2022-10-05T09:26:05.459Z,14.03
2022-10-05T09:29:12.146Z,14.21
2022-10-05T09:32:30.431Z,14.37
2022-10-05T09:36:09.505Z,14.43
2022-10-05T09:39:20.632Z,14.46
2022-10-05T09:42:36.012Z,14.47
2022-10-05T09:45:58.060Z,14.53
2022-10-05T09:49:28.816Z,14.62
2022-10-05T09:52:46.061Z,14.77
2022-10-05T09:55:27.007Z,14.85
2022-10-05T09:58:35.254Z,15.08
2022-10-05T10:01:40.735Z,15.25
2022-10-05T10:04:24.788Z,15.38
2022-10-05T10:07:25.426Z,15.49
2022-10-05T10:10:34.033Z,15.48
2022-10-05T10:13:56.036Z,15.44
2022-10-05T10:16:45.620Z,15.28
2022-10-05T10:19:38.211Z,15.26
2022-10-05T10:22:50.272Z,15.08
2022-10-05T10:25:55.014Z,15.03
2022-10-05T10:29:10.025Z,14.88
2022-10-05T10:31:50.351Z,15.32
2022-10-05T10:34:43.989Z,15.63
2022-10-05T10:37:20.577Z,15.78
2022-10-05T10:40:20.322Z,15.44
2022-10-05T10:43:18.369Z,15.51
2022-10-05T10:46:35.459Z,15.46
2022-10-05T10:50:05.272Z,15.40
2022-10-05T10:53:00.954Z,15.27
2022-10-05T10:56:01.069Z,15.35
2022-10-05T10:59:06.316Z,15.40
2022-10-05T11:02:22.558Z,15.49
2022-10-05T11:05:33.308Z,15.44
2022-10-05T11:08:55.585Z,15.53
2022-10-05T11:11:46.586Z,15.55
2022-10-05T11:14:40.530Z,15.59
2022-10-05T11:17:58.334Z,15.64
2022-10-05T11:21:00.917Z,15.63
2022-10-05T11:24:15.405Z,15.87
2022-10-05T11:27:08.547Z,15.53
2022-10-05T11:30:35.300Z,15.73
2022-10-05T11:33:06.531Z,15.88
2022-10-05T11:36:19.616Z,15.87
